Champaign, IL

6:35 PM CST on November 28, 2014 (GMT -0600)
Indian Acres, Prospect Ave. and Kirby Ave. | Change Station
CLOSE
Current Station
Personal Weather Station
Location: Champaign, IL
Elevation: 758 ft
Nearby Weather Stations

Elev 758 ft 40.10 °N, 88.26 °W | Updated 7 seconds ago

Partly Cloudy
Partly Cloudy
34.7 °F
Feels Like 35 °F
N
0.0
Wind Variable Wind from East
Gusts 0.0 mph

Today
High -- | Low -- °F
--% Chance of Precip.
Yesterday
High -- | Low -- °F
Precip. -- in
6:52 AM 4:28 PM
Waxing Crescent, 45% visible
Pressure 30.04 in
Visibility 8.0 miles
Clouds Clear
Windchill 35 °F
Dew Point 34 °F
Humidity 99%
Rainfall 0.00 in
Snow Depth Not available.
UV 0 out of 12
Pollen .10 out of 12
Air Quality Not available.
Flu Activity Not available.
METAR KCMI 282353Z 16014KT 8SM CLR 02/M01 A3001 RMK AO2 SLP170 T00171011 10039 20011 55005 $

More Conditions Fewer Conditions

Pressure 30.04 in
Visibility 8.0 miles
Clouds Clear
Windchill 35 °F
Dew Point 34 °F
Humidity 99%
Rainfall 0.00 in
Snow Depth Not available.
UV 0 out of 12
Pollen .10 out of 12
Air Quality Not available.
Flu Activity Not available.
METAR KCMI 282353Z 16014KT 8SM CLR 02/M01 A3001 RMK AO2 SLP170 T00171011 10039 20011 55005 $

More Conditions Fewer Conditions

10-Day Weather Forecast

Almanac

Astronomy

Nov. 28, 2014 Rise Set
Actual Time
Civil Twilight
Nautical Twilight
Astronomical Twilight
Moon
Length of Visible Light
Length of Day
Tomorrow will be .
, % of the Moon is Illuminated

Today's Extremes

State Highs State Lows

Community

WunderPhotos

Upload Photos

1,774,344 photos uploaded!

WunderBlogs® & News

Nearby

Air Quality

  Air Quality AQ Index Pollutant
Not available.

Snow Depth

Station Depth Elevation

Earthquake Activity

City Distance Mag. Time & Date
Minimum magnitude displayed is 2.5.

Coastal Water Temperatures

Place Temperature

Nearby Weather Stations